createdAt,value
2022-09-10T00:01:57.252Z,3.70
2022-09-10T00:04:39.039Z,3.25
2022-09-10T00:07:27.459Z,4.03
2022-09-10T00:10:09.091Z,3.72
2022-09-10T00:12:57.318Z,3.65
2022-09-10T00:15:40.118Z,3.35
2022-09-10T00:18:30.344Z,4.05
2022-09-10T00:21:15.092Z,3.40
2022-09-10T00:24:05.150Z,3.78
2022-09-10T00:26:47.080Z,4.10
2022-09-10T00:29:35.346Z,3.90
2022-09-10T00:32:25.111Z,4.10
2022-09-10T00:35:14.271Z,4.28
2022-09-10T00:38:03.273Z,3.90
2022-09-10T00:40:53.456Z,3.55
2022-09-10T00:43:43.753Z,3.50
2022-09-10T00:46:42.952Z,3.97
2022-09-10T00:49:37.266Z,4.03
2022-09-10T00:52:27.989Z,3.90
2022-09-10T00:55:10.096Z,3.92
2022-09-10T00:58:11.197Z,4.03
2022-09-10T01:01:11.162Z,3.53
2022-09-10T01:04:02.846Z,4.15
2022-09-10T01:06:47.109Z,3.58
2022-09-10T01:09:32.426Z,4.15
2022-09-10T01:12:40.186Z,3.50
2022-09-10T01:15:36.745Z,4.10
2022-09-10T01:18:38.195Z,4.10
2022-09-10T01:21:32.176Z,4.00
2022-09-10T01:24:45.384Z,4.22
2022-09-10T01:27:50.313Z,4.13
2022-09-10T01:30:37.101Z,3.63
2022-09-10T01:33:30.522Z,4.10
2022-09-10T01:36:27.135Z,4.18
2022-09-10T01:39:12.364Z,3.88
2022-09-10T01:42:09.066Z,3.97
2022-09-10T01:45:01.108Z,3.92
2022-09-10T01:48:09.180Z,3.67
2022-09-10T01:51:08.839Z,4.03
2022-09-10T01:54:31.086Z,4.00
2022-09-10T01:57:33.518Z,5.25
2022-09-10T02:00:26.158Z,4.38
2022-09-10T02:03:16.184Z,5.35
2022-09-10T02:06:08.065Z,4.03
2022-09-10T02:08:53.457Z,4.32
2022-09-10T02:11:59.188Z,4.43
2022-09-10T02:14:58.258Z,4.32
2022-09-10T02:18:04.100Z,5.13
2022-09-10T02:20:53.404Z,4.68
2022-09-10T02:23:46.114Z,5.45
2022-09-10T02:26:35.339Z,5.43
2022-09-10T02:29:26.174Z,5.55
2022-09-10T02:32:15.344Z,6.18
2022-09-10T02:34:58.134Z,6.28
2022-09-10T02:40:28.236Z,5.22
2022-09-10T02:43:17.324Z,5.90
2022-09-10T02:46:02.226Z,6.45
2022-09-10T02:48:51.380Z,6.25
2022-09-10T02:51:35.178Z,7.15
2022-09-10T02:54:23.449Z,6.95
2022-09-10T02:57:12.094Z,6.13
2022-09-10T03:00:08.096Z,6.50
2022-09-10T03:03:04.105Z,7.15
2022-09-10T03:05:52.571Z,6.90
2022-09-10T03:08:42.106Z,7.40
2022-09-10T03:11:30.352Z,7.75
2022-09-10T03:14:19.138Z,8.68
2022-09-10T03:17:08.688Z,8.65
2022-09-10T03:19:50.133Z,8.05
2022-09-10T03:22:38.403Z,8.93
2022-09-10T03:25:25.228Z,8.68
2022-09-10T03:28:13.718Z,9.40
2022-09-10T03:30:57.388Z,9.70
2022-09-10T03:33:51.159Z,10.07
2022-09-10T03:36:36.176Z,10.27
2022-09-10T03:39:25.339Z,12.48
2022-09-10T03:42:15.218Z,11.70
2022-09-10T03:45:03.334Z,10.90
2022-09-10T03:47:51.194Z,11.07
2022-09-10T03:50:39.330Z,10.85
2022-09-10T03:53:28.240Z,11.18
2022-09-10T03:56:18.129Z,11.75
2022-09-10T03:59:15.124Z,12.00
2022-09-10T04:02:11.248Z,13.35
2022-09-10T04:05:01.268Z,12.98
2022-09-10T04:07:52.349Z,13.27
2022-09-10T04:10:41.215Z,15.75
2022-09-10T04:13:24.375Z,15.52
2022-09-10T04:16:14.372Z,16.40
2022-09-10T04:18:56.388Z,16.30
2022-09-10T04:21:44.214Z,15.30
2022-09-10T04:24:26.339Z,16.08
2022-09-10T04:27:21.133Z,16.02
2022-09-10T04:30:09.453Z,16.17
2022-09-10T04:32:59.184Z,15.27
2022-09-10T04:35:47.353Z,17.35
2022-09-10T04:38:37.175Z,16.60
2022-09-10T04:41:22.347Z,17.85
2022-09-10T04:44:11.314Z,17.60
2022-09-10T04:46:59.464Z,18.67
2022-09-10T04:49:43.214Z,18.77
2022-09-10T04:52:32.450Z,19.55
2022-09-10T04:55:16.165Z,20.27
2022-09-10T04:58:04.498Z,22.77
2022-09-10T05:01:04.306Z,21.92
2022-09-10T05:03:59.366Z,21.13
2022-09-10T05:07:00.251Z,22.92
2022-09-10T05:09:48.805Z,24.67
2022-09-10T05:12:37.211Z,24.38
2022-09-10T05:15:26.596Z,23.38
2022-09-10T05:18:15.263Z,23.85
2022-09-10T05:21:05.418Z,22.48
2022-09-10T05:23:57.269Z,22.45
2022-09-10T05:26:48.479Z,23.48
2022-09-10T05:29:37.253Z,24.58
2022-09-10T05:32:25.636Z,26.20
2022-09-10T05:35:07.350Z,25.65
2022-09-10T05:37:58.594Z,25.83
2022-09-10T05:40:46.291Z,27.20
2022-09-10T05:43:36.577Z,26.92
2022-09-10T05:46:19.261Z,26.08
2022-09-10T05:49:13.239Z,61.47
2022-09-10T05:52:02.160Z,27.70
2022-09-10T05:54:44.781Z,27.52
2022-09-10T05:57:34.370Z,25.95
2022-09-10T06:00:33.290Z,28.63
2022-09-10T06:03:28.279Z,27.85
2022-09-10T06:06:17.577Z,27.88
2022-09-10T06:09:12.288Z,27.30
2022-09-10T06:12:27.477Z,28.30
2022-09-10T06:15:11.288Z,27.75
2022-09-10T06:20:41.285Z,26.88
2022-09-10T06:23:31.583Z,27.30
2022-09-10T06:26:15.285Z,27.27
2022-09-10T06:29:09.574Z,24.92
2022-09-10T06:31:51.179Z,28.00
2022-09-10T06:34:39.547Z,27.10
2022-09-10T06:37:27.234Z,25.63
2022-09-10T06:40:19.803Z,26.38
2022-09-10T06:43:08.201Z,25.88
2022-09-10T06:46:34.749Z,25.08
2022-09-10T06:49:25.259Z,23.95
2022-09-10T06:52:13.578Z,26.67
2022-09-10T06:54:58.167Z,25.55
2022-09-10T06:57:59.039Z,28.65
2022-09-10T07:00:55.369Z,29.42
2022-09-10T07:03:46.464Z,23.83
2022-09-10T07:06:29.200Z,24.75
2022-09-10T07:09:22.502Z,22.88
2022-09-10T07:12:13.263Z,27.60
2022-09-10T07:15:02.435Z,24.02
2022-09-10T07:17:51.192Z,23.40
2022-09-10T07:20:42.190Z,22.27
2022-09-10T07:23:31.312Z,21.90
2022-09-10T07:26:14.274Z,22.35
2022-09-10T07:29:05.537Z,22.20
2022-09-10T07:31:48.206Z,21.75
2022-09-10T07:34:38.924Z,19.38
2022-09-10T07:37:29.304Z,20.50
2022-09-10T07:40:18.496Z,20.50
2022-09-10T07:43:07.317Z,18.67
2022-09-10T07:45:55.431Z,19.50
2022-09-10T07:48:44.332Z,19.60
2022-09-10T07:51:34.404Z,19.95
2022-09-10T07:54:26.284Z,19.42
2022-09-10T07:57:15.599Z,19.85
2022-09-10T08:00:10.249Z,19.67
2022-09-10T08:03:04.202Z,17.58
2022-09-10T08:05:47.329Z,17.60
2022-09-10T08:08:38.280Z,17.27
2022-09-10T08:11:25.337Z,18.92
2022-09-10T08:14:14.319Z,21.73
2022-09-10T08:17:07.353Z,18.55
2022-09-10T08:19:52.361Z,19.77
2022-09-10T08:22:41.244Z,20.55
2022-09-10T08:25:29.423Z,20.73
2022-09-10T08:28:26.258Z,19.55
2022-09-10T08:31:18.069Z,19.45
2022-09-10T08:34:26.236Z,19.58
2022-09-10T08:37:19.527Z,20.50
2022-09-10T08:40:12.562Z,19.23
2022-09-10T08:43:02.564Z,18.42
2022-09-10T08:45:46.279Z,18.52
2022-09-10T08:48:37.619Z,17.35
2022-09-10T08:51:26.287Z,21.00
2022-09-10T08:54:21.635Z,16.05
2022-09-10T08:57:12.270Z,15.35
2022-09-10T09:00:10.283Z,16.73
2022-09-10T09:03:14.386Z,14.35
2022-09-10T09:09:03.281Z,37.05
